Terminal Aerodrome Forecast
Issued by NWS

Home | Current Version | Previous Version | Text Only | Print | Product List | Glossary On
Versions: 1 2 3 4 5 6 7 8 9 10 11 12 13 14 15 16 17 18 19 20 21 22 23
456
FTUS41 KPBZ 011720
TAFZZV
TAF
KZZV 011720Z 0118/0218 26005KT P6SM VCTS SCT013 BKN050CB
      TEMPO 0119/0123 6SM -SHRA OVC035
     FM020000 VRB03KT P6SM VCSH BKN025
     FM020300 VRB03KT 4SM -SHRA BR OVC010
     FM021500 33006KT P6SM OVC012=

USA.gov is the U.S. government's official web portal to all federal, state and local government web resources and services.